sensor_id;sensor_type;location;lat;lon;timestamp;pressure;altitude;pressure_sealevel;temperature;humidity
48204;BME280;33994;50.998;5.864;2023-04-23T00:01:46;100305.00;;;9.54;97.44
48204;BME280;33994;50.998;5.864;2023-04-23T00:04:51;100305.00;;;9.52;97.72
48204;BME280;33994;50.998;5.864;2023-04-23T00:07:58;100307.59;;;9.54;98.04
48204;BME280;33994;50.998;5.864;2023-04-23T00:11:04;100296.25;;;9.55;98.00
48204;BME280;33994;50.998;5.864;2023-04-23T00:14:08;100298.03;;;9.53;97.96
48204;BME280;33994;50.998;5.864;2023-04-23T00:17:11;100291.09;;;9.53;98.05
48204;BME280;33994;50.998;5.864;2023-04-23T00:20:15;100293.69;;;9.53;98.04
48204;BME280;33994;50.998;5.864;2023-04-23T00:23:20;100290.28;;;9.48;98.01
48204;BME280;33994;50.998;5.864;2023-04-23T00:26:23;100292.09;;;9.46;98.05
48204;BME280;33994;50.998;5.864;2023-04-23T00:29:26;100280.78;;;9.45;98.14
48204;BME280;33994;50.998;5.864;2023-04-23T00:32:29;100285.06;;;9.48;98.10
48204;BME280;33994;50.998;5.864;2023-04-23T00:35:32;100280.78;;;9.45;98.04
48204;BME280;33994;50.998;5.864;2023-04-23T00:38:37;100280.84;;;9.42;98.05
48204;BME280;33994;50.998;5.864;2023-04-23T00:41:40;100276.44;;;9.44;98.15
48204;BME280;33994;50.998;5.864;2023-04-23T00:44:43;100266.00;;;9.44;98.02
48204;BME280;33994;50.998;5.864;2023-04-23T00:47:47;100270.41;;;9.42;97.94
48204;BME280;33994;50.998;5.864;2023-04-23T00:50:57;100263.44;;;9.41;97.97
48204;BME280;33994;50.998;5.864;2023-04-23T00:54:02;100269.53;;;9.42;97.87
48204;BME280;33994;50.998;5.864;2023-04-23T00:57:05;100263.44;;;9.41;97.91
48204;BME280;33994;50.998;5.864;2023-04-23T01:00:09;100262.56;;;9.42;97.97
48204;BME280;33994;50.998;5.864;2023-04-23T01:03:12;100259.97;;;9.42;98.00
48204;BME280;33994;50.998;5.864;2023-04-23T01:06:15;100255.59;;;9.41;97.78
48204;BME280;33994;50.998;5.864;2023-04-23T01:09:20;100256.50;;;9.40;98.22
48204;BME280;33994;50.998;5.864;2023-04-23T01:12:24;100255.66;;;9.40;98.42
48204;BME280;33994;50.998;5.864;2023-04-23T01:15:27;100255.59;;;9.41;98.41
48204;BME280;33994;50.998;5.864;2023-04-23T01:18:30;100249.53;;;9.42;98.40
48204;BME280;33994;50.998;5.864;2023-04-23T01:21:34;100247.66;;;9.47;98.47
48204;BME280;33994;50.998;5.864;2023-04-23T01:24:39;100245.91;;;9.48;98.39
48204;BME280;33994;50.998;5.864;2023-04-23T01:27:43;100247.66;;;9.47;98.32
48204;BME280;33994;50.998;5.864;2023-04-23T01:30:46;100237.22;;;9.47;98.35
48204;BME280;33994;50.998;5.864;2023-04-23T01:33:50;100246.78;;;9.48;97.96
48204;BME280;33994;50.998;5.864;2023-04-23T01:36:55;100239.78;;;9.49;98.22
48204;BME280;33994;50.998;5.864;2023-04-23T01:40:00;100243.28;;;9.49;98.11
48204;BME280;33994;50.998;5.864;2023-04-23T01:43:03;100245.13;;;9.44;98.05
48204;BME280;33994;50.998;5.864;2023-04-23T01:46:06;100240.84;;;9.40;98.11
48204;BME280;33994;50.998;5.864;2023-04-23T01:49:09;100233.91;;;9.39;98.37
48204;BME280;33994;50.998;5.864;2023-04-23T01:52:12;100235.69;;;9.37;98.27
48204;BME280;33994;50.998;5.864;2023-04-23T01:55:17;100237.34;;;9.41;98.28
48204;BME280;33994;50.998;5.864;2023-04-23T01:58:20;100232.91;;;9.45;98.07
48204;BME280;33994;50.998;5.864;2023-04-23T02:01:23;100229.44;;;9.44;97.80
48204;BME280;33994;50.998;5.864;2023-04-23T02:04:28;100230.31;;;9.45;97.53
48204;BME280;33994;50.998;5.864;2023-04-23T02:07:32;100225.13;;;9.43;97.44
48204;BME280;33994;50.998;5.864;2023-04-23T02:10:37;100223.41;;;9.42;97.41
48204;BME280;33994;50.998;5.864;2023-04-23T02:13:40;100226.09;;;9.39;97.33
48204;BME280;33994;50.998;5.864;2023-04-23T02:16:43;100218.22;;;9.41;97.39
48204;BME280;33994;50.998;5.864;2023-04-23T02:19:46;100220.88;;;9.39;97.33
48204;BME280;33994;50.998;5.864;2023-04-23T02:22:49;100218.25;;;9.38;97.26
48204;BME280;33994;50.998;5.864;2023-04-23T02:25:54;100217.41;;;9.39;97.01
48204;BME280;33994;50.998;5.864;2023-04-23T02:28:57;100217.41;;;9.39;96.84
48204;BME280;33994;50.998;5.864;2023-04-23T02:32:00;100208.72;;;9.37;96.75
48204;BME280;33994;50.998;5.864;2023-04-23T02:35:04;100209.56;;;9.37;96.60
48204;BME280;33994;50.998;5.864;2023-04-23T02:38:07;100210.44;;;9.38;96.62
48204;BME280;33994;50.998;5.864;2023-04-23T02:41:12;100204.31;;;9.40;96.44
48204;BME280;33994;50.998;5.864;2023-04-23T02:44:15;100214.72;;;9.42;96.30
48204;BME280;33994;50.998;5.864;2023-04-23T02:47:18;100214.69;;;9.43;96.24
48204;BME280;33994;50.998;5.864;2023-04-23T02:50:21;100212.94;;;9.45;96.28
48204;BME280;33994;50.998;5.864;2023-04-23T02:53:24;100210.22;;;9.48;96.07
48204;BME280;33994;50.998;5.864;2023-04-23T02:56:29;100205.84;;;9.51;96.00
48204;BME280;33994;50.998;5.864;2023-04-23T02:59:32;100213.63;;;9.54;95.92
48204;BME280;33994;50.998;5.864;2023-04-23T03:02:35;100215.28;;;9.56;95.88
48204;BME280;33994;50.998;5.864;2023-04-23T03:05:38;100217.84;;;9.61;95.91
48204;BME280;33994;50.998;5.864;2023-04-23T03:08:41;100222.09;;;9.65;95.77
48204;BME280;33994;50.998;5.864;2023-04-23T03:11:46;100215.91;;;9.69;95.90
48204;BME280;33994;50.998;5.864;2023-04-23T03:14:49;100213.16;;;9.75;95.97
48204;BME280;33994;50.998;5.864;2023-04-23T03:17:53;100215.66;;;9.81;96.06
48204;BME280;33994;50.998;5.864;2023-04-23T03:20:56;100207.72;;;9.86;95.91
48204;BME280;33994;50.998;5.864;2023-04-23T03:24:00;100204.19;;;9.88;96.00
48204;BME280;33994;50.998;5.864;2023-04-23T03:27:04;100211.88;;;9.94;95.87
48204;BME280;33994;50.998;5.864;2023-04-23T03:30:08;100205.69;;;9.98;95.83
48204;BME280;33994;50.998;5.864;2023-04-23T03:33:12;100197.84;;;9.98;95.89
48204;BME280;33994;50.998;5.864;2023-04-23T03:36:15;100201.25;;;10.02;95.92
48204;BME280;33994;50.998;5.864;2023-04-23T03:39:18;100192.50;;;10.05;95.80
48204;BME280;33994;50.998;5.864;2023-04-23T03:42:22;100203.78;;;10.07;95.75
48204;BME280;33994;50.998;5.864;2023-04-23T03:45:26;100194.09;;;10.10;95.77
48204;BME280;33994;50.998;5.864;2023-04-23T03:48:29;100198.38;;;10.13;95.62
48204;BME280;33994;50.998;5.864;2023-04-23T03:51:32;100192.19;;;10.17;95.58
48204;BME280;33994;50.998;5.864;2023-04-23T03:54:35;100193.84;;;10.21;95.53
48204;BME280;33994;50.998;5.864;2023-04-23T03:57:40;100197.22;;;10.26;95.36
48204;BME280;33994;50.998;5.864;2023-04-23T04:00:44;100200.66;;;10.28;95.22
48204;BME280;33994;50.998;5.864;2023-04-23T04:03:47;100198.00;;;10.30;95.18
48204;BME280;33994;50.998;5.864;2023-04-23T04:06:50;100199.69;;;10.32;95.27
48204;BME280;33994;50.998;5.864;2023-04-23T04:09:53;100199.66;;;10.34;95.01
48204;BME280;33994;50.998;5.864;2023-04-23T04:12:57;100199.66;;;10.34;95.09
48204;BME280;33994;50.998;5.864;2023-04-23T04:16:01;100203.94;;;10.36;94.90
48204;BME280;33994;50.998;5.864;2023-04-23T04:19:04;100205.69;;;10.37;95.05
48204;BME280;33994;50.998;5.864;2023-04-23T04:22:07;100205.56;;;10.40;94.77
48204;BME280;33994;50.998;5.864;2023-04-23T04:25:10;100200.34;;;10.42;94.90
48204;BME280;33994;50.998;5.864;2023-04-23T04:28:14;100195.91;;;10.44;94.86
48204;BME280;33994;50.998;5.864;2023-04-23T04:31:17;100205.38;;;10.48;94.70
48204;BME280;33994;50.998;5.864;2023-04-23T04:34:20;100204.41;;;10.54;94.54
48204;BME280;33994;50.998;5.864;2023-04-23T04:37:24;100193.94;;;10.54;94.27
48204;BME280;33994;50.998;5.864;2023-04-23T04:40:27;100203.50;;;10.55;94.33
48204;BME280;33994;50.998;5.864;2023-04-23T04:43:32;100199.06;;;10.58;94.34
48204;BME280;33994;50.998;5.864;2023-04-23T04:46:34;100201.63;;;10.60;94.07
48204;BME280;33994;50.998;5.864;2023-04-23T04:49:38;100202.44;;;10.62;93.94
48204;BME280;33994;50.998;5.864;2023-04-23T04:52:41;100200.66;;;10.64;93.74
48204;BME280;33994;50.998;5.864;2023-04-23T04:55:44;100207.59;;;10.65;93.68
48204;BME280;33994;50.998;5.864;2023-04-23T04:58:49;100198.91;;;10.64;93.70
48204;BME280;33994;50.998;5.864;2023-04-23T05:01:52;100206.69;;;10.66;93.69
48204;BME280;33994;50.998;5.864;2023-04-23T05:04:55;100211.94;;;10.66;93.55
48204;BME280;33994;50.998;5.864;2023-04-23T05:07:58;100209.31;;;10.66;93.50
48204;BME280;33994;50.998;5.864;2023-04-23T05:11:01;100203.19;;;10.67;93.34
48204;BME280;33994;50.998;5.864;2023-04-23T05:14:06;100210.16;;;10.66;93.45
48204;BME280;33994;50.998;5.864;2023-04-23T05:17:09;100211.00;;;10.68;93.39
48204;BME280;33994;50.998;5.864;2023-04-23T05:20:12;100212.59;;;10.74;93.34
48204;BME280;33994;50.998;5.864;2023-04-23T05:23:16;100208.13;;;10.79;93.38
48204;BME280;33994;50.998;5.864;2023-04-23T05:26:20;100215.03;;;10.83;93.18
48204;BME280;33994;50.998;5.864;2023-04-23T05:29:24;100211.50;;;10.84;93.02
48204;BME280;33994;50.998;5.864;2023-04-23T05:32:27;100207.97;;;10.87;92.76
48204;BME280;33994;50.998;5.864;2023-04-23T05:35:30;100207.00;;;10.89;92.59
48204;BME280;33994;50.998;5.864;2023-04-23T05:38:33;100206.88;;;10.94;92.61
48204;BME280;33994;50.998;5.864;2023-04-23T05:41:37;100212.88;;;10.99;92.39
48204;BME280;33994;50.998;5.864;2023-04-23T05:44:41;100210.13;;;11.04;92.19
48204;BME280;33994;50.998;5.864;2023-04-23T05:47:44;100200.38;;;11.09;91.97
48204;BME280;33994;50.998;5.864;2023-04-23T05:50:47;100207.94;;;11.19;91.82
48204;BME280;33994;50.998;5.864;2023-04-23T05:53:51;100211.81;;;11.37;91.41
48204;BME280;33994;50.998;5.864;2023-04-23T05:56:54;100214.81;;;11.55;90.80
48204;BME280;33994;50.998;5.864;2023-04-23T05:59:58;100210.81;;;11.73;90.29
48204;BME280;33994;50.998;5.864;2023-04-23T06:03:01;100210.28;;;11.89;89.41
48204;BME280;33994;50.998;5.864;2023-04-23T06:06:05;100205.47;;;12.05;88.57
48204;BME280;33994;50.998;5.864;2023-04-23T06:09:08;100206.13;;;12.12;87.88
48204;BME280;33994;50.998;5.864;2023-04-23T06:12:11;100203.47;;;12.13;87.39
48204;BME280;33994;50.998;5.864;2023-04-23T06:15:16;100207.88;;;12.11;87.15
48204;BME280;33994;50.998;5.864;2023-04-23T06:18:19;100204.13;;;12.20;87.30
48204;BME280;33994;50.998;5.864;2023-04-23T06:21:22;100201.69;;;12.42;86.60
48204;BME280;33994;50.998;5.864;2023-04-23T06:24:26;100204.50;;;12.64;85.99
48204;BME280;33994;50.998;5.864;2023-04-23T06:27:29;100196.84;;;12.83;85.21
48204;BME280;33994;50.998;5.864;2023-04-23T06:30:33;100198.69;;;13.06;84.26
48204;BME280;33994;50.998;5.864;2023-04-23T06:33:37;100193.81;;;13.20;83.45
48204;BME280;33994;50.998;5.864;2023-04-23T06:36:40;100190.53;;;13.38;82.75
48204;BME280;33994;50.998;5.864;2023-04-23T06:39:43;100187.97;;;13.60;81.97
48204;BME280;33994;50.998;5.864;2023-04-23T06:42:46;100184.72;;;13.77;81.11
48204;BME280;33994;50.998;5.864;2023-04-23T06:45:51;100184.34;;;13.86;79.83
48204;BME280;33994;50.998;5.864;2023-04-23T06:48:55;100177.75;;;13.98;79.71
48204;BME280;33994;50.998;5.864;2023-04-23T06:51:58;100181.44;;;14.16;78.99
48204;BME280;33994;50.998;5.864;2023-04-23T06:55:01;100180.22;;;14.25;79.08
48204;BME280;33994;50.998;5.864;2023-04-23T06:58:04;100188.13;;;14.45;78.29
48204;BME280;33994;50.998;5.864;2023-04-23T07:01:09;100182.63;;;14.51;77.43
48204;BME280;33994;50.998;5.864;2023-04-23T07:04:12;100177.13;;;14.57;77.07
48204;BME280;33994;50.998;5.864;2023-04-23T07:07:15;100166.19;;;14.68;76.71
48204;BME280;33994;50.998;5.864;2023-04-23T07:10:19;100157.91;;;14.77;76.08
48204;BME280;33994;50.998;5.864;2023-04-23T07:13:22;100160.97;;;14.87;75.31
48204;BME280;33994;50.998;5.864;2023-04-23T07:16:27;100155.78;;;14.86;74.70
48204;BME280;33994;50.998;5.864;2023-04-23T07:19:29;100153.97;;;14.88;74.89
48204;BME280;33994;50.998;5.864;2023-04-23T07:22:33;100153.66;;;14.94;74.25
48204;BME280;33994;50.998;5.864;2023-04-23T07:25:36;100158.69;;;15.00;73.83
48204;BME280;33994;50.998;5.864;2023-04-23T07:28:40;100151.28;;;15.08;73.96
48204;BME280;33994;50.998;5.864;2023-04-23T07:31:44;100146.41;;;15.19;73.07
48204;BME280;33994;50.998;5.864;2023-04-23T07:34:47;100152.59;;;15.18;72.91
48204;BME280;33994;50.998;5.864;2023-04-23T07:37:51;100145.34;;;15.23;72.30
48204;BME280;33994;50.998;5.864;2023-04-23T07:40:54;100146.78;;;15.30;72.48
48204;BME280;33994;50.998;5.864;2023-04-23T07:43:57;100135.81;;;15.40;71.90
48204;BME280;33994;50.998;5.864;2023-04-23T07:47:01;100140.16;;;15.41;71.61
48204;BME280;33994;50.998;5.864;2023-04-23T07:50:06;100137.59;;;15.39;71.45
48204;BME280;33994;50.998;5.864;2023-04-23T07:53:09;100141.09;;;15.40;71.30
48204;BME280;33994;50.998;5.864;2023-04-23T07:56:13;100131.34;;;15.42;71.24
48204;BME280;33994;50.998;5.864;2023-04-23T07:59:16;100138.22;;;15.44;71.20
48204;BME280;33994;50.998;5.864;2023-04-23T08:02:21;100135.97;;;15.55;70.47
48204;BME280;33994;50.998;5.864;2023-04-23T08:05:24;100138.53;;;15.57;70.18
48204;BME280;33994;50.998;5.864;2023-04-23T08:08:27;100129.97;;;15.52;70.24
48204;BME280;33994;50.998;5.864;2023-04-23T08:11:30;100130.84;;;15.52;70.27
48204;BME280;33994;50.998;5.864;2023-04-23T08:14:33;100118.53;;;15.53;70.48
48204;BME280;33994;50.998;5.864;2023-04-23T08:17:38;100121.44;;;15.66;70.03
48204;BME280;33994;50.998;5.864;2023-04-23T08:20:41;100115.75;;;15.75;69.56
48204;BME280;33994;50.998;5.864;2023-04-23T08:23:44;100119.31;;;15.74;69.53
48204;BME280;33994;50.998;5.864;2023-04-23T08:26:48;100121.81;;;15.77;69.75
48204;BME280;33994;50.998;5.864;2023-04-23T08:29:51;100111.03;;;15.81;69.28
48204;BME280;33994;50.998;5.864;2023-04-23T08:32:56;100120.50;;;15.86;68.51
48204;BME280;33994;50.998;5.864;2023-04-23T08:35:59;100115.72;;;15.94;68.12
48204;BME280;33994;50.998;5.864;2023-04-23T08:39:03;100115.81;;;15.92;66.98
48204;BME280;33994;50.998;5.864;2023-04-23T08:42:10;100113.25;;;15.91;65.51
48204;BME280;33994;50.998;5.864;2023-04-23T08:45:15;100115.09;;;15.89;65.77
48204;BME280;33994;50.998;5.864;2023-04-23T08:48:20;100119.38;;;15.91;65.18
48204;BME280;33994;50.998;5.864;2023-04-23T08:51:24;100123.00;;;15.89;65.68
48204;BME280;33994;50.998;5.864;2023-04-23T08:54:33;100118.19;;;15.79;65.67
48204;BME280;33994;50.998;5.864;2023-04-23T08:57:39;100122.75;;;15.76;66.33
48204;BME280;33994;50.998;5.864;2023-04-23T09:00:42;100098.94;;;15.77;66.22
48204;BME280;33994;50.998;5.864;2023-04-23T09:03:48;100098.66;;;15.84;66.28
48204;BME280;33994;50.998;5.864;2023-04-23T09:06:52;100104.47;;;15.90;65.67
48204;BME280;33994;50.998;5.864;2023-04-23T09:09:55;100104.03;;;15.99;64.88
48204;BME280;33994;50.998;5.864;2023-04-23T09:12:58;100094.19;;;16.03;64.59
48204;BME280;33994;50.998;5.864;2023-04-23T09:16:04;100102.72;;;16.08;64.03
48204;BME280;33994;50.998;5.864;2023-04-23T09:19:09;100098.84;;;16.15;63.58
48204;BME280;33994;50.998;5.864;2023-04-23T09:22:13;100097.00;;;16.17;63.71
48204;BME280;33994;50.998;5.864;2023-04-23T09:25:17;100086.28;;;16.20;63.47
48204;BME280;33994;50.998;5.864;2023-04-23T09:28:33;100090.66;;;16.21;62.96
48204;BME280;33994;50.998;5.864;2023-04-23T09:31:36;100097.72;;;16.21;63.61
48204;BME280;33994;50.998;5.864;2023-04-23T09:34:40;100084.44;;;16.22;63.21
48204;BME280;33994;50.998;5.864;2023-04-23T09:37:45;100077.78;;;16.33;62.73
48204;BME280;33994;50.998;5.864;2023-04-23T09:40:49;100071.63;;;16.32;62.44
48204;BME280;33994;50.998;5.864;2023-04-23T09:43:53;100076.97;;;16.30;62.07
48204;BME280;33994;50.998;5.864;2023-04-23T09:47:05;100077.38;;;16.23;61.54
48204;BME280;33994;50.998;5.864;2023-04-23T09:50:10;100068.84;;;16.18;61.98
48204;BME280;33994;50.998;5.864;2023-04-23T09:53:13;100076.59;;;16.21;61.65
48204;BME280;33994;50.998;5.864;2023-04-23T09:56:18;100066.22;;;16.18;61.61
48204;BME280;33994;50.998;5.864;2023-04-23T09:59:23;100059.00;;;16.21;61.66
48204;BME280;33994;50.998;5.864;2023-04-23T10:02:26;100058.06;;;16.22;61.12
48204;BME280;33994;50.998;5.864;2023-04-23T10:05:31;100061.94;;;16.33;61.11
48204;BME280;33994;50.998;5.864;2023-04-23T10:08:39;100065.09;;;16.39;61.12
48204;BME280;33994;50.998;5.864;2023-04-23T10:11:43;100061.47;;;16.42;61.01
48204;BME280;33994;50.998;5.864;2023-04-23T10:14:47;100059.38;;;16.48;61.17
48204;BME280;33994;50.998;5.864;2023-04-23T10:17:50;100061.84;;;16.51;61.04
48204;BME280;33994;50.998;5.864;2023-04-23T10:20:56;100055.69;;;16.51;61.17
48204;BME280;33994;50.998;5.864;2023-04-23T10:24:01;100059.22;;;16.51;60.91
48204;BME280;33994;50.998;5.864;2023-04-23T10:27:09;100063.50;;;16.37;61.05
48204;BME280;33994;50.998;5.864;2023-04-23T10:30:13;100061.31;;;16.27;61.34
48204;BME280;33994;50.998;5.864;2023-04-23T10:33:16;100057.06;;;16.25;61.63
48204;BME280;33994;50.998;5.864;2023-04-23T10:36:22;100051.84;;;16.23;61.39
48204;BME280;33994;50.998;5.864;2023-04-23T10:39:27;100050.28;;;16.19;61.02
48204;BME280;33994;50.998;5.864;2023-04-23T10:42:31;100038.78;;;16.20;60.80
48204;BME280;33994;50.998;5.864;2023-04-23T10:45:34;100043.91;;;16.23;60.73
48204;BME280;33994;50.998;5.864;2023-04-23T10:48:50;100034.91;;;16.27;59.64
48204;BME280;33994;50.998;5.864;2023-04-23T10:52:02;100025.91;;;16.32;59.75
48204;BME280;33994;50.998;5.864;2023-04-23T10:55:15;100022.41;;;16.31;59.61
48204;BME280;33994;50.998;5.864;2023-04-23T10:58:19;100020.56;;;16.33;60.17
48204;BME280;33994;50.998;5.864;2023-04-23T11:01:23;100018.63;;;16.37;59.55
48204;BME280;33994;50.998;5.864;2023-04-23T11:04:28;100025.38;;;16.42;59.75
48204;BME280;33994;50.998;5.864;2023-04-23T11:07:33;100021.88;;;16.42;59.56
48204;BME280;33994;50.998;5.864;2023-04-23T11:10:50;100008.44;;;16.46;58.87
48204;BME280;33994;50.998;5.864;2023-04-23T11:13:56;100008.38;;;16.48;58.74
48204;BME280;33994;50.998;5.864;2023-04-23T11:16:59;100003.16;;;16.46;58.61
48204;BME280;33994;50.998;5.864;2023-04-23T11:20:07;99997.34;;;16.40;58.63
48204;BME280;33994;50.998;5.864;2023-04-23T11:23:28;100005.88;;;16.45;58.84
48204;BME280;33994;50.998;5.864;2023-04-23T11:26:33;99994.47;;;16.44;58.11
48204;BME280;33994;50.998;5.864;2023-04-23T11:29:38;99988.97;;;16.49;57.91
48204;BME280;33994;50.998;5.864;2023-04-23T11:32:43;99980.19;;;16.48;56.58
48204;BME280;33994;50.998;5.864;2023-04-23T11:35:47;99972.53;;;16.44;56.84
48204;BME280;33994;50.998;5.864;2023-04-23T11:38:54;99968.59;;;16.51;56.26
48204;BME280;33994;50.998;5.864;2023-04-23T11:41:57;99967.44;;;16.57;56.54
48204;BME280;33994;50.998;5.864;2023-04-23T11:45:00;99960.28;;;16.59;56.11
48204;BME280;33994;50.998;5.864;2023-04-23T11:48:04;99955.69;;;16.62;55.87
48204;BME280;33994;50.998;5.864;2023-04-23T11:51:08;99956.13;;;16.70;55.52
48204;BME280;33994;50.998;5.864;2023-04-23T11:54:13;99940.22;;;16.72;55.42
48204;BME280;33994;50.998;5.864;2023-04-23T11:57:16;99928.31;;;16.81;55.17
48204;BME280;33994;50.998;5.864;2023-04-23T12:00:21;99923.63;;;16.86;54.69
48204;BME280;33994;50.998;5.864;2023-04-23T12:03:24;99921.34;;;16.95;54.67
48204;BME280;33994;50.998;5.864;2023-04-23T12:06:28;99913.94;;;17.02;54.17
48204;BME280;33994;50.998;5.864;2023-04-23T12:09:32;99914.34;;;17.10;53.86
48204;BME280;33994;50.998;5.864;2023-04-23T12:12:36;99900.19;;;17.11;53.58
48204;BME280;33994;50.998;5.864;2023-04-23T12:15:46;99899.44;;;17.09;52.26
48204;BME280;33994;50.998;5.864;2023-04-23T12:18:52;99893.75;;;17.01;52.23
48204;BME280;33994;50.998;5.864;2023-04-23T12:21:57;99884.78;;;17.03;52.88
48204;BME280;33994;50.998;5.864;2023-04-23T12:25:04;99890.16;;;17.02;52.60
48204;BME280;33994;50.998;5.864;2023-04-23T12:28:07;99882.13;;;17.03;52.76
48204;BME280;33994;50.998;5.864;2023-04-23T12:31:18;99871.56;;;17.03;52.17
48204;BME280;33994;50.998;5.864;2023-04-23T12:34:21;99864.50;;;17.04;52.64
48204;BME280;33994;50.998;5.864;2023-04-23T12:37:25;99861.00;;;17.03;52.75
48204;BME280;33994;50.998;5.864;2023-04-23T12:40:29;99850.28;;;17.07;52.64
48204;BME280;33994;50.998;5.864;2023-04-23T12:43:32;99850.19;;;17.08;52.36
48204;BME280;33994;50.998;5.864;2023-04-23T12:46:35;99846.69;;;17.08;52.45
48204;BME280;33994;50.998;5.864;2023-04-23T12:49:39;99838.59;;;17.11;52.65
48204;BME280;33994;50.998;5.864;2023-04-23T12:52:43;99835.09;;;17.10;52.42
48204;BME280;33994;50.998;5.864;2023-04-23T12:55:48;99829.03;;;17.08;51.44
48204;BME280;33994;50.998;5.864;2023-04-23T12:58:51;99826.41;;;17.08;52.05
48204;BME280;33994;50.998;5.864;2023-04-23T13:01:54;99826.59;;;17.05;51.76
48204;BME280;33994;50.998;5.864;2023-04-23T13:04:57;99816.09;;;17.03;51.79
48204;BME280;33994;50.998;5.864;2023-04-23T13:08:01;99819.97;;;16.98;51.35
48204;BME280;33994;50.998;5.864;2023-04-23T13:11:05;99818.59;;;16.91;50.75
48204;BME280;33994;50.998;5.864;2023-04-23T13:14:09;99816.31;;;16.85;49.98
48204;BME280;33994;50.998;5.864;2023-04-23T13:17:12;99816.56;;;16.80;50.11
48204;BME280;33994;50.998;5.864;2023-04-23T13:20:16;99820.41;;;16.74;50.20
48204;BME280;33994;50.998;5.864;2023-04-23T13:23:19;99827.97;;;16.65;50.97
48204;BME280;33994;50.998;5.864;2023-04-23T13:26:23;99838.34;;;16.52;52.82
48204;BME280;33994;50.998;5.864;2023-04-23T13:29:27;99846.50;;;16.32;56.34
48204;BME280;33994;50.998;5.864;2023-04-23T13:32:30;99846.13;;;16.06;59.96
48204;BME280;33994;50.998;5.864;2023-04-23T13:35:33;99841.97;;;15.85;62.72
48204;BME280;33994;50.998;5.864;2023-04-23T13:38:36;99837.94;;;15.60;64.83
48204;BME280;33994;50.998;5.864;2023-04-23T13:41:41;99828.50;;;15.39;66.56
48204;BME280;33994;50.998;5.864;2023-04-23T13:44:44;99824.97;;;15.21;67.94
48204;BME280;33994;50.998;5.864;2023-04-23T13:47:47;99816.72;;;15.11;69.92
48204;BME280;33994;50.998;5.864;2023-04-23T13:50:50;99807.41;;;15.04;70.75
48204;BME280;33994;50.998;5.864;2023-04-23T13:53:54;99798.00;;;14.98;71.65
48204;BME280;33994;50.998;5.864;2023-04-23T13:56:58;99791.19;;;14.94;72.02
48204;BME280;33994;50.998;5.864;2023-04-23T14:00:02;99791.19;;;14.94;72.19
48204;BME280;33994;50.998;5.864;2023-04-23T14:03:04;99793.91;;;14.93;72.03
48204;BME280;33994;50.998;5.864;2023-04-23T14:06:08;99786.31;;;14.87;72.28
48204;BME280;33994;50.998;5.864;2023-04-23T14:09:11;99780.28;;;14.84;72.98
48204;BME280;33994;50.998;5.864;2023-04-23T14:12:15;99782.34;;;14.78;73.37
48204;BME280;33994;50.998;5.864;2023-04-23T14:15:19;99780.88;;;14.72;74.21
48204;BME280;33994;50.998;5.864;2023-04-23T14:18:22;99787.28;;;14.67;74.32
48204;BME280;33994;50.998;5.864;2023-04-23T14:21:26;99775.25;;;14.61;74.70
48204;BME280;33994;50.998;5.864;2023-04-23T14:24:33;99767.50;;;14.58;75.46
48204;BME280;33994;50.998;5.864;2023-04-23T14:27:40;99766.09;;;14.51;75.84
48204;BME280;33994;50.998;5.864;2023-04-23T14:30:48;99758.56;;;14.43;77.15
48204;BME280;33994;50.998;5.864;2023-04-23T14:33:51;99760.41;;;14.41;77.08
48204;BME280;33994;50.998;5.864;2023-04-23T14:36:55;99760.56;;;14.38;77.64
48204;BME280;33994;50.998;5.864;2023-04-23T14:39:58;99761.41;;;14.39;78.23
48204;BME280;33994;50.998;5.864;2023-04-23T14:43:03;99751.31;;;14.29;79.25
48204;BME280;33994;50.998;5.864;2023-04-23T14:46:06;99747.22;;;14.24;79.42
48204;BME280;33994;50.998;5.864;2023-04-23T14:49:09;99748.34;;;14.18;80.16
48204;BME280;33994;50.998;5.864;2023-04-23T14:52:13;99742.16;;;14.19;80.84
48204;BME280;33994;50.998;5.864;2023-04-23T14:55:16;99729.03;;;14.19;81.66
48204;BME280;33994;50.998;5.864;2023-04-23T14:58:20;99725.75;;;14.14;81.82
48204;BME280;33994;50.998;5.864;2023-04-23T15:01:23;99720.66;;;14.11;81.57
48204;BME280;33994;50.998;5.864;2023-04-23T15:04:27;99722.47;;;14.09;81.91
48204;BME280;33994;50.998;5.864;2023-04-23T15:07:30;99711.13;;;14.08;82.34
48204;BME280;33994;50.998;5.864;2023-04-23T15:10:33;99707.88;;;14.03;82.63
48204;BME280;33994;50.998;5.864;2023-04-23T15:13:43;99711.47;;;14.01;83.10
48204;BME280;33994;50.998;5.864;2023-04-23T15:16:46;99706.97;;;14.03;82.98
48204;BME280;33994;50.998;5.864;2023-04-23T15:19:50;99700.75;;;14.05;82.40
48204;BME280;33994;50.998;5.864;2023-04-23T15:22:53;99688.53;;;14.04;82.08
48204;BME280;33994;50.998;5.864;2023-04-23T15:25:56;99678.88;;;14.05;82.34
48204;BME280;33994;50.998;5.864;2023-04-23T15:29:01;99677.16;;;14.04;82.35
48204;BME280;33994;50.998;5.864;2023-04-23T15:32:04;99660.38;;;14.06;82.50
48204;BME280;33994;50.998;5.864;2023-04-23T15:35:07;99649.66;;;14.11;82.33
48204;BME280;33994;50.998;5.864;2023-04-23T15:38:10;99643.59;;;14.09;82.75
48204;BME280;33994;50.998;5.864;2023-04-23T15:41:13;99647.16;;;14.08;82.61
48204;BME280;33994;50.998;5.864;2023-04-23T15:44:18;99637.41;;;14.10;82.21
48204;BME280;33994;50.998;5.864;2023-04-23T15:47:21;99632.09;;;14.11;81.96
48204;BME280;33994;50.998;5.864;2023-04-23T15:50:24;99627.75;;;14.10;80.68
48204;BME280;33994;50.998;5.864;2023-04-23T15:53:28;99624.41;;;14.07;80.14
48204;BME280;33994;50.998;5.864;2023-04-23T15:56:31;99615.06;;;14.01;80.03
48204;BME280;33994;50.998;5.864;2023-04-23T15:59:35;99608.81;;;14.04;79.57
48204;BME280;33994;50.998;5.864;2023-04-23T16:02:38;99606.38;;;13.99;78.76
48204;BME280;33994;50.998;5.864;2023-04-23T16:05:41;99605.53;;;13.99;78.55
48204;BME280;33994;50.998;5.864;2023-04-23T16:08:44;99600.59;;;13.93;77.23